Time;durP1;ratioP1;P1;durP2;ratioP2;P2;SDS_P1;SDS_P2;PMS_P1;PMS_P2;Temp;Humidity;BMP_temperature;BMP_pressure;BME280_temperature;BME280_humidity;BME280_pressure;Samples;Min_cycle;Max_cycle;Signal;HPM_P1;HPM_P2
2021/04/11 00:03:21;;;;;;;2.60;1.40;;;9.90;99.90;;;;;;20942448;28;20044;-77
2021/04/11 00:13:28;;;;;;;3.38;1.50;;;9.80;99.90;;;;;;20922256;28;20045;-77
2021/04/11 00:23:30;;;;;;;2.97;1.08;;;9.80;99.90;;;;;;20884182;28;20072;-79
2021/04/11 00:33:38;;;;;;;4.15;1.20;;;9.60;99.90;;;;;;20913103;28;20453;-78
2021/04/11 00:43:40;;;;;;;5.30;1.42;;;9.50;99.90;;;;;;20895459;28;20045;-78
2021/04/11 00:53:41;;;;;;;5.43;1.30;;;9.90;99.90;;;;;;20878273;28;20045;-78
2021/04/11 01:03:42;;;;;;;;;;;9.90;99.90;;;;;;20911124;28;20072;-76
2021/04/11 01:13:56;;;;;;;2.22;1.30;;;9.70;99.90;;;;;;20891730;28;19916;-78
2021/04/11 01:24:09;;;;;;;3.58;1.75;;;9.60;99.90;;;;;;20898008;28;20458;-78
2021/04/11 01:34:13;;;;;;;5.00;1.90;;;9.90;99.90;;;;;;20963542;28;20372;-78
2021/04/11 01:44:17;;;;;;;;;;;9.70;99.90;;;;;;20993612;28;20499;-77
2021/04/11 01:54:23;;;;;;;3.88;1.80;;;9.60;99.90;;;;;;20992754;28;20309;-78
2021/04/11 02:04:25;;;;;;;3.08;1.65;;;9.70;99.90;;;;;;21009729;28;20119;-77
2021/04/11 02:14:27;;;;;;;3.47;1.60;;;9.50;99.90;;;;;;20993575;28;20037;-76
2021/04/11 02:24:30;;;;;;;5.07;1.80;;;9.60;99.90;;;;;;20973858;28;20149;-77
2021/04/11 02:34:33;;;;;;;2.85;1.90;;;9.60;99.90;;;;;;20972747;28;20507;-77
2021/04/11 02:44:40;;;;;;;3.78;1.60;;;9.70;99.90;;;;;;21006524;28;20067;-78
2021/04/11 02:54:43;;;;;;;3.90;1.80;;;9.30;99.90;;;;;;20761195;23;20096;-75
2021/04/11 03:04:52;;;;;;;6.50;1.75;;;9.10;99.90;;;;;;20745947;28;20432;-75
2021/04/11 03:14:58;;;;;;;2.63;1.80;;;9.40;99.90;;;;;;20745443;28;20046;-75
2021/04/11 03:25:05;;;;;;;4.32;2.20;;;9.40;99.90;;;;;;20742171;28;20053;-75
2021/04/11 03:35:10;;;;;;;3.97;2.20;;;9.30;99.90;;;;;;20711223;28;20635;-76
2021/04/11 03:45:13;;;;;;;9.05;2.22;;;9.50;99.90;;;;;;20726472;28;20084;-76
2021/04/11 03:55:20;;;;;;;7.68;1.83;;;9.40;99.90;;;;;;20727373;28;20038;-75
2021/04/11 04:05:26;;;;;;;4.70;2.03;;;9.20;99.90;;;;;;20766739;28;20112;-75
2021/04/11 04:16:05;;;;;;;2.95;2.03;;;9.20;99.90;;;;;;20748690;28;20041;-75
2021/04/11 04:26:36;;;;;;;3.33;2.25;;;9.40;99.90;;;;;;20764634;28;20077;-75
2021/04/11 04:36:41;;;;;;;3.28;1.98;;;9.30;99.90;;;;;;20747704;28;20041;-75
2021/04/11 04:47:14;;;;;;;5.00;2.30;;;9.10;99.90;;;;;;20725381;28;651217;-75
2021/04/11 04:57:59;;;;;;;6.88;2.25;;;8.50;99.90;;;;;;20750883;28;20492;-75
2021/04/11 05:08:10;;;;;;;6.93;2.50;;;8.30;99.90;;;;;;20746733;28;20466;-75
2021/04/11 05:18:24;;;;;;;4.55;2.20;;;8.50;99.90;;;;;;20753386;28;20069;-75
2021/04/11 05:28:53;;;;;;;3.90;1.98;;;8.70;99.90;;;;;;20752377;28;20373;-75
2021/04/11 05:39:26;;;;;;;5.97;2.60;;;8.80;99.90;;;;;;20751960;28;20049;-75
2021/04/11 05:49:37;;;;;;;3.10;2.20;;;8.90;99.90;;;;;;20764253;28;20132;-75
2021/04/11 05:59:48;;;;;;;6.40;2.17;;;8.70;99.90;;;;;;20733971;28;20037;-75
2021/04/11 06:10:04;;;;;;;4.38;2.08;;;8.80;99.90;;;;;;20750419;28;20045;-75
2021/04/11 06:20:07;;;;;;;5.22;2.70;;;9.10;99.90;;;;;;20731840;28;20077;-73
2021/04/11 06:30:17;;;;;;;6.57;2.38;;;9.50;99.90;;;;;;20749354;28;20042;-74
2021/04/11 06:40:56;;;;;;;6.40;2.45;;;9.80;99.90;;;;;;20730820;28;20038;-73
2021/04/11 06:51:24;;;;;;;6.93;2.38;;;10.40;99.90;;;;;;20723417;28;20046;-74
2021/04/11 07:01:57;;;;;;;6.47;3.00;;;11.70;99.90;;;;;;20745397;28;20397;-74
2021/04/11 07:12:22;;;;;;;8.73;2.70;;;11.70;99.90;;;;;;20745145;28;20069;-74
2021/04/11 07:22:26;;;;;;;6.47;2.92;;;11.00;99.90;;;;;;20745462;28;20535;-74
2021/04/11 07:32:45;;;;;;;5.85;3.33;;;10.70;99.90;;;;;;20740269;28;20065;-74
2021/04/11 07:43:05;;;;;;;9.15;3.20;;;10.80;99.90;;;;;;20723969;28;20456;-73
2021/04/11 07:53:37;;;;;;;4.97;2.78;;;11.00;99.90;;;;;;20742025;28;20477;-74
2021/04/11 08:03:56;;;;;;;5.60;2.85;;;11.30;99.90;;;;;;20742959;28;20034;-75
2021/04/11 08:14:31;;;;;;;4.93;2.88;;;11.50;99.90;;;;;;20738834;28;20096;-75
2021/04/11 08:24:46;;;;;;;7.15;3.42;;;11.60;99.90;;;;;;20742988;28;20053;-75
2021/04/11 08:34:56;;;;;;;6.45;3.20;;;11.50;99.90;;;;;;20732573;28;20448;-74
2021/04/11 08:45:11;;;;;;;8.43;3.00;;;11.40;99.90;;;;;;20728975;28;20045;-74
2021/04/11 08:56:02;;;;;;;11.07;5.88;;;11.30;99.90;;;;;;20850825;23;20136;-75
2021/04/11 09:06:28;;;;;;;20.13;7.38;;;11.30;99.90;;;;;;20704836;28;20121;-74
2021/04/11 09:16:57;;;;;;;33.63;13.85;;;11.60;99.90;;;;;;20745203;28;20054;-74
2021/04/11 09:27:09;;;;;;;19.15;4.45;;;11.80;99.90;;;;;;20744310;28;20061;-74
2021/04/11 09:37:58;;;;;;;9.73;3.55;;;11.90;99.90;;;;;;20762834;28;20042;-75
2021/04/11 09:48:12;;;;;;;7.90;3.17;;;12.40;99.90;;;;;;20752987;28;20042;-75
2021/04/11 09:58:41;;;;;;;7.45;3.45;;;12.80;99.90;;;;;;20767236;28;20045;-74
2021/04/11 10:09:17;;;;;;;3.03;2.30;;;13.10;99.90;;;;;;20752397;28;20038;-76
2021/04/11 10:19:29;;;;;;;7.40;2.60;;;13.70;99.90;;;;;;20749546;28;20041;-74
2021/04/11 10:29:32;;;;;;;4.40;2.80;;;14.20;99.90;;;;;;20744612;28;20037;-75
2021/04/11 10:39:47;;;;;;;4.32;2.10;;;14.50;99.90;;;;;;20735800;28;20034;-76
2021/04/11 10:50:15;;;;;;;4.80;2.22;;;14.70;99.90;;;;;;20748018;28;20042;-76
2021/04/11 11:00:32;;;;;;;4.50;2.10;;;16.00;99.90;;;;;;20766361;28;20041;-75
2021/04/11 11:10:59;;;;;;;7.88;3.20;;;18.30;99.90;;;;;;20709178;28;20447;-77
2021/04/11 11:21:39;;;;;;;3.00;1.80;;;18.00;99.90;;;;;;20791882;28;20041;-77
2021/04/11 11:31:40;;;;;;;3.72;1.73;;;19.60;99.90;;;;;;20792144;28;20404;-76
2021/04/11 11:41:43;;;;;;;3.60;1.70;;;21.50;99.90;;;;;;20697474;28;20038;-74
2021/04/11 11:52:14;;;;;;;4.07;1.80;;;22.40;96.00;;;;;;20721630;28;20501;-75
2021/04/11 12:02:28;;;;;;;3.35;1.10;;;21.30;95.50;;;;;;20787795;28;20075;-76
2021/04/11 12:12:33;;;;;;;6.88;1.52;;;22.10;93.70;;;;;;20807583;28;20042;-74
2021/04/11 12:22:45;;;;;;;3.20;1.60;;;20.40;93.60;;;;;;20731753;28;20053;-75
2021/04/11 12:32:58;;;;;;;3.70;1.55;;;21.10;94.20;;;;;;20817439;28;20179;-76
2021/04/11 12:43:14;;;;;;;4.15;2.00;;;21.10;92.70;;;;;;20728321;28;20057;-75
2021/04/11 12:53:27;;;;;;;15.88;5.10;;;20.20;92.90;;;;;;20758393;28;20038;-76
2021/04/11 13:03:37;;;;;;;14.27;6.05;;;21.30;93.40;;;;;;20708518;28;20046;-76
2021/04/11 13:14:19;;;;;;;3.53;2.10;;;20.90;94.50;;;;;;20656860;28;20567;-76
2021/04/11 13:24:26;;;;;;;8.50;2.03;;;21.10;92.30;;;;;;20718812;28;20809;-75
2021/04/11 13:34:40;;;;;;;2.63;1.23;;;20.90;92.20;;;;;;20710591;28;20125;-76
2021/04/11 13:44:57;;;;;;;4.05;1.10;;;20.40;94.20;;;;;;20738654;28;20045;-77
2021/04/11 13:55:14;;;;;;;2.22;0.90;;;19.90;94.20;;;;;;20749672;28;20092;-77
2021/04/11 14:05:27;;;;;;;3.70;1.88;;;20.50;95.40;;;;;;20671273;28;20046;-74
2021/04/11 14:15:36;;;;;;;1.58;0.60;;;19.40;99.90;;;;;;20654412;28;20042;-74
2021/04/11 14:26:10;;;;;;;5.22;0.80;;;18.50;99.90;;;;;;20649303;28;20058;-76
2021/04/11 14:36:15;;;;;;;1.92;0.85;;;17.50;99.90;;;;;;20672264;28;20547;-75
2021/04/11 14:46:22;;;;;;;1.98;0.70;;;17.10;99.90;;;;;;20756315;28;20045;-76
2021/04/11 14:56:38;;;;;;;3.00;0.60;;;16.30;99.90;;;;;;20744898;28;20056;-76
2021/04/11 15:07:08;;;;;;;2.90;0.85;;;15.90;99.90;;;;;;20805762;28;20038;-76
2021/04/11 15:17:24;;;;;;;3.05;0.73;;;15.10;99.90;;;;;;20727264;28;20117;-75
2021/04/11 15:27:32;;;;;;;0.90;0.52;;;14.90;99.90;;;;;;20723817;28;20038;-75
2021/04/11 15:37:57;;;;;;;0.70;0.50;;;14.90;99.90;;;;;;20686229;28;20076;-76
2021/04/11 15:48:18;;;;;;;0.63;0.50;;;14.70;99.90;;;;;;20641476;28;20549;-76
2021/04/11 15:58:41;;;;;;;1.50;0.47;;;14.90;99.90;;;;;;20643631;28;20401;-76
2021/04/11 16:09:11;;;;;;;1.05;0.50;;;14.20;99.90;;;;;;20677318;28;20052;-76
2021/04/11 16:19:24;;;;;;;0.70;0.50;;;14.10;99.90;;;;;;20724559;28;20048;-75
2021/04/11 16:29:41;;;;;;;0.93;0.60;;;13.80;99.90;;;;;;20722813;28;20061;-75
2021/04/11 16:39:48;;;;;;;0.60;0.55;;;13.60;99.90;;;;;;20669743;28;20158;-74
2021/04/11 16:50:06;;;;;;;0.45;0.45;;;13.40;99.90;;;;;;20642622;28;20417;-76
2021/04/11 17:00:15;;;;;;;0.43;0.28;;;13.20;99.90;;;;;;20640779;28;20038;-73
2021/04/11 17:10:36;;;;;;;0.28;0.20;;;12.70;99.90;;;;;;20697552;28;20103;-76
2021/04/11 17:20:40;;;;;;;0.45;0.30;;;12.40;99.90;;;;;;20729441;28;20049;-75
2021/04/11 17:30:50;;;;;;;0.60;0.10;;;12.40;99.90;;;;;;20710249;28;20070;-73
2021/04/11 17:41:21;;;;;;;0.13;0.13;;;12.20;99.90;;;;;;20648452;28;20128;-75
2021/04/11 17:51:57;;;;;;;0.10;0.10;;;11.90;99.90;;;;;;20648559;28;20046;-75
2021/04/11 18:02:18;;;;;;;1.00;0.45;;;11.60;99.90;;;;;;20702761;28;20121;-75
2021/04/11 18:12:36;;;;;;;0.30;0.30;;;11.40;99.90;;;;;;20775829;28;20091;-75
2021/04/11 18:23:12;;;;;;;0.20;0.20;;;11.10;99.90;;;;;;20782507;28;20412;-74
2021/04/11 18:33:34;;;;;;;0.30;0.30;;;10.90;99.90;;;;;;20746753;28;20096;-74
2021/04/11 18:43:47;;;;;;;0.55;0.32;;;10.80;99.90;;;;;;20646156;28;20042;-76
2021/04/11 18:54:05;;;;;;;1.05;0.68;;;10.80;99.90;;;;;;20644728;28;20552;-75
2021/04/11 19:04:24;;;;;;;0.70;0.30;;;10.70;99.90;;;;;;20645607;28;20042;-77
2021/04/11 19:14:30;;;;;;;1.08;0.52;;;10.40;99.90;;;;;;20647622;28;20703;-76
2021/04/11 19:24:45;;;;;;;3.55;0.50;;;9.90;99.90;;;;;;20646002;28;20085;-77
2021/04/11 19:35:01;;;;;;;2.20;0.30;;;9.70;99.90;;;;;;20721250;28;20393;-76
2021/04/11 19:45:10;;;;;;;0.60;0.30;;;9.50;99.90;;;;;;20725865;28;20045;-76
2021/04/11 19:55:34;;;;;;;2.20;1.20;;;9.30;99.90;;;;;;20728202;28;20044;-75
2021/04/11 20:05:56;;;;;;;3.28;0.98;;;9.20;99.90;;;;;;20799061;28;20455;-76
2021/04/11 20:16:32;;;;;;;2.60;1.27;;;9.20;99.90;;;;;;20703916;28;20048;-76
2021/04/11 20:26:41;;;;;;;3.00;1.35;;;9.30;99.90;;;;;;20671039;28;20138;-76
2021/04/11 20:36:54;;;;;;;1.10;0.70;;;9.30;99.90;;;;;;20758416;28;20042;-76
2021/04/11 20:47:17;;;;;;;1.02;0.80;;;9.30;99.90;;;;;;20734031;28;20045;-75
2021/04/11 20:57:30;;;;;;;1.98;1.00;;;9.20;99.90;;;;;;20705217;28;20157;-75
2021/04/11 21:07:52;;;;;;;2.60;1.50;;;9.10;99.90;;;;;;20703725;28;20041;-76
2021/04/11 21:18:12;;;;;;;;;;;9.10;99.90;;;;;;20829530;28;20140;-75
2021/04/11 21:28:19;;;;;;;1.42;0.60;;;9.00;99.90;;;;;;20812305;28;19916;-76
2021/04/11 21:38:35;;;;;;;1.02;0.77;;;8.90;99.90;;;;;;20704754;28;20073;-75
2021/04/11 21:48:54;;;;;;;0.70;0.60;;;8.80;99.90;;;;;;20652883;28;20210;-76
2021/04/11 21:59:13;;;;;;;5.72;0.43;;;8.70;99.90;;;;;;20650559;28;20045;-74
2021/04/11 22:09:46;;;;;;;1.00;0.57;;;8.60;99.90;;;;;;20692061;28;20030;-75
2021/04/11 22:20:15;;;;;;;0.57;0.40;;;8.50;99.90;;;;;;20731374;28;20061;-76
2021/04/11 22:30:36;;;;;;;0.60;0.50;;;8.40;99.90;;;;;;20674633;28;20041;-76
2021/04/11 22:41:00;;;;;;;0.60;0.60;;;8.30;99.90;;;;;;20667113;28;20042;-76
2021/04/11 22:51:06;;;;;;;2.08;1.50;;;8.30;99.90;;;;;;20649236;28;20261;-76
2021/04/11 23:01:10;;;;;;;1.50;1.40;;;8.10;99.90;;;;;;20726390;23;20137;-76
2021/04/11 23:11:35;;;;;;;3.13;2.20;;;7.90;99.90;;;;;;20829783;28;20492;-77
2021/04/11 23:21:46;;;;;;;2.08;1.88;;;7.70;99.90;;;;;;20786688;28;20091;-76
2021/04/11 23:32:09;;;;;;;1.55;1.20;;;7.20;99.90;;;;;;20768213;28;20094;-77
2021/04/11 23:42:36;;;;;;;0.93;0.82;;;7.10;99.90;;;;;;20787247;28;20060;-77
2021/04/11 23:52:52;;;;;;;0.70;0.70;;;6.70;99.90;;;;;;20816933;28;20037;-76
